sensor_id;sensor_type;location;lat;lon;timestamp;P1;durP1;ratioP1;P2;durP2;ratioP2
33858;SDS011;20156;47.486;12.074;2024-01-30T00:01:47;4.83;;;3.90;;
33858;SDS011;20156;47.486;12.074;2024-01-30T00:04:12;5.77;;;3.83;;
33858;SDS011;20156;47.486;12.074;2024-01-30T00:06:37;5.27;;;3.80;;
33858;SDS011;20156;47.486;12.074;2024-01-30T00:09:03;5.33;;;4.17;;
33858;SDS011;20156;47.486;12.074;2024-01-30T00:11:29;5.33;;;4.03;;
33858;SDS011;20156;47.486;12.074;2024-01-30T00:13:54;4.90;;;3.60;;
33858;SDS011;20156;47.486;12.074;2024-01-30T00:16:24;5.27;;;4.27;;
33858;SDS011;20156;47.486;12.074;2024-01-30T00:18:53;4.37;;;3.40;;
33858;SDS011;20156;47.486;12.074;2024-01-30T00:21:18;4.77;;;4.13;;
33858;SDS011;20156;47.486;12.074;2024-01-30T00:23:44;5.10;;;3.70;;
33858;SDS011;20156;47.486;12.074;2024-01-30T00:26:09;5.77;;;4.00;;
33858;SDS011;20156;47.486;12.074;2024-01-30T00:28:34;6.53;;;4.57;;
33858;SDS011;20156;47.486;12.074;2024-01-30T00:31:00;5.13;;;3.90;;
33858;SDS011;20156;47.486;12.074;2024-01-30T00:33:25;8.63;;;4.10;;
33858;SDS011;20156;47.486;12.074;2024-01-30T00:35:50;5.77;;;4.17;;
33858;SDS011;20156;47.486;12.074;2024-01-30T00:38:15;5.10;;;3.80;;
33858;SDS011;20156;47.486;12.074;2024-01-30T00:40:41;5.40;;;3.87;;
33858;SDS011;20156;47.486;12.074;2024-01-30T00:43:06;6.10;;;4.30;;
33858;SDS011;20156;47.486;12.074;2024-01-30T00:45:31;17.10;;;11.03;;
33858;SDS011;20156;47.486;12.074;2024-01-30T00:47:56;9.50;;;5.90;;
33858;SDS011;20156;47.486;12.074;2024-01-30T00:50:22;15.63;;;9.90;;
33858;SDS011;20156;47.486;12.074;2024-01-30T00:52:47;21.03;;;12.43;;
33858;SDS011;20156;47.486;12.074;2024-01-30T00:55:12;11.63;;;7.47;;
33858;SDS011;20156;47.486;12.074;2024-01-30T00:57:39;8.80;;;6.20;;
33858;SDS011;20156;47.486;12.074;2024-01-30T01:00:04;11.20;;;6.90;;
33858;SDS011;20156;47.486;12.074;2024-01-30T01:02:33;11.43;;;7.27;;
33858;SDS011;20156;47.486;12.074;2024-01-30T01:04:59;12.03;;;8.13;;
33858;SDS011;20156;47.486;12.074;2024-01-30T01:07:24;9.43;;;6.33;;
33858;SDS011;20156;47.486;12.074;2024-01-30T01:09:49;11.37;;;7.53;;
33858;SDS011;20156;47.486;12.074;2024-01-30T01:12:14;8.90;;;6.30;;
33858;SDS011;20156;47.486;12.074;2024-01-30T01:14:40;11.00;;;6.97;;
33858;SDS011;20156;47.486;12.074;2024-01-30T01:17:06;7.47;;;5.07;;
33858;SDS011;20156;47.486;12.074;2024-01-30T01:19:32;7.90;;;5.33;;
33858;SDS011;20156;47.486;12.074;2024-01-30T01:21:57;8.13;;;5.47;;
33858;SDS011;20156;47.486;12.074;2024-01-30T01:24:22;11.00;;;8.43;;
33858;SDS011;20156;47.486;12.074;2024-01-30T01:26:47;11.90;;;7.10;;
33858;SDS011;20156;47.486;12.074;2024-01-30T01:29:13;9.47;;;6.80;;
33858;SDS011;20156;47.486;12.074;2024-01-30T01:31:38;7.50;;;5.17;;
33858;SDS011;20156;47.486;12.074;2024-01-30T01:34:11;8.13;;;5.50;;
33858;SDS011;20156;47.486;12.074;2024-01-30T01:36:36;7.33;;;5.40;;
33858;SDS011;20156;47.486;12.074;2024-01-30T01:39:01;8.73;;;5.70;;
33858;SDS011;20156;47.486;12.074;2024-01-30T01:41:33;6.70;;;4.80;;
33858;SDS011;20156;47.486;12.074;2024-01-30T01:43:59;5.00;;;4.20;;
33858;SDS011;20156;47.486;12.074;2024-01-30T01:46:26;4.87;;;3.50;;
33858;SDS011;20156;47.486;12.074;2024-01-30T01:48:51;5.07;;;3.93;;
33858;SDS011;20156;47.486;12.074;2024-01-30T01:51:17;6.20;;;3.80;;
33858;SDS011;20156;47.486;12.074;2024-01-30T01:53:42;4.30;;;3.60;;
33858;SDS011;20156;47.486;12.074;2024-01-30T01:56:07;6.20;;;4.07;;
33858;SDS011;20156;47.486;12.074;2024-01-30T01:58:33;4.50;;;3.43;;
33858;SDS011;20156;47.486;12.074;2024-01-30T02:00:58;5.30;;;3.63;;
33858;SDS011;20156;47.486;12.074;2024-01-30T02:03:24;7.33;;;3.87;;
33858;SDS011;20156;47.486;12.074;2024-01-30T02:05:50;5.60;;;3.83;;
33858;SDS011;20156;47.486;12.074;2024-01-30T02:08:15;5.77;;;3.83;;
33858;SDS011;20156;47.486;12.074;2024-01-30T02:10:41;6.30;;;3.80;;
33858;SDS011;20156;47.486;12.074;2024-01-30T02:13:06;7.13;;;4.10;;
33858;SDS011;20156;47.486;12.074;2024-01-30T02:15:31;6.07;;;4.20;;
33858;SDS011;20156;47.486;12.074;2024-01-30T02:17:56;8.30;;;3.90;;
33858;SDS011;20156;47.486;12.074;2024-01-30T02:20:23;5.37;;;4.10;;
33858;SDS011;20156;47.486;12.074;2024-01-30T02:22:49;5.07;;;3.70;;
33858;SDS011;20156;47.486;12.074;2024-01-30T02:25:15;5.30;;;4.10;;
33858;SDS011;20156;47.486;12.074;2024-01-30T02:27:40;5.57;;;4.77;;
33858;SDS011;20156;47.486;12.074;2024-01-30T02:30:06;6.73;;;4.67;;
33858;SDS011;20156;47.486;12.074;2024-01-30T02:32:31;4.30;;;3.63;;
33858;SDS011;20156;47.486;12.074;2024-01-30T02:34:56;4.97;;;4.10;;
33858;SDS011;20156;47.486;12.074;2024-01-30T02:37:22;4.87;;;4.03;;
33858;SDS011;20156;47.486;12.074;2024-01-30T02:39:47;6.03;;;4.40;;
33858;SDS011;20156;47.486;12.074;2024-01-30T02:42:12;4.90;;;3.53;;
33858;SDS011;20156;47.486;12.074;2024-01-30T02:44:37;7.27;;;4.27;;
33858;SDS011;20156;47.486;12.074;2024-01-30T02:47:03;7.37;;;4.10;;
33858;SDS011;20156;47.486;12.074;2024-01-30T02:49:28;5.03;;;3.40;;
33858;SDS011;20156;47.486;12.074;2024-01-30T02:51:53;7.50;;;3.43;;
33858;SDS011;20156;47.486;12.074;2024-01-30T02:54:19;4.97;;;3.23;;
33858;SDS011;20156;47.486;12.074;2024-01-30T02:56:44;5.17;;;3.43;;
33858;SDS011;20156;47.486;12.074;2024-01-30T02:59:09;4.20;;;3.23;;
33858;SDS011;20156;47.486;12.074;2024-01-30T03:01:42;4.67;;;3.07;;
33858;SDS011;20156;47.486;12.074;2024-01-30T03:04:07;4.93;;;3.60;;
33858;SDS011;20156;47.486;12.074;2024-01-30T03:06:32;3.97;;;3.57;;
33858;SDS011;20156;47.486;12.074;2024-01-30T03:08:58;6.80;;;4.40;;
33858;SDS011;20156;47.486;12.074;2024-01-30T03:11:23;5.57;;;4.23;;
33858;SDS011;20156;47.486;12.074;2024-01-30T03:13:48;30.43;;;16.13;;
33858;SDS011;20156;47.486;12.074;2024-01-30T03:16:13;13.40;;;8.20;;
33858;SDS011;20156;47.486;12.074;2024-01-30T03:18:38;13.07;;;8.53;;
33858;SDS011;20156;47.486;12.074;2024-01-30T03:21:04;6.73;;;4.57;;
33858;SDS011;20156;47.486;12.074;2024-01-30T03:23:29;8.10;;;5.57;;
33858;SDS011;20156;47.486;12.074;2024-01-30T03:25:54;14.40;;;7.60;;
33858;SDS011;20156;47.486;12.074;2024-01-30T03:28:19;10.57;;;7.33;;
33858;SDS011;20156;47.486;12.074;2024-01-30T03:30:45;9.57;;;5.93;;
33858;SDS011;20156;47.486;12.074;2024-01-30T03:33:10;6.00;;;4.60;;
33858;SDS011;20156;47.486;12.074;2024-01-30T03:35:35;13.27;;;4.77;;
33858;SDS011;20156;47.486;12.074;2024-01-30T03:38:00;8.13;;;5.33;;
33858;SDS011;20156;47.486;12.074;2024-01-30T03:40:26;6.90;;;4.43;;
33858;SDS011;20156;47.486;12.074;2024-01-30T03:42:51;11.37;;;6.90;;
33858;SDS011;20156;47.486;12.074;2024-01-30T03:45:16;6.93;;;5.10;;
33858;SDS011;20156;47.486;12.074;2024-01-30T03:47:44;7.53;;;5.00;;
33858;SDS011;20156;47.486;12.074;2024-01-30T03:50:09;6.60;;;4.73;;
33858;SDS011;20156;47.486;12.074;2024-01-30T03:52:34;6.27;;;4.27;;
33858;SDS011;20156;47.486;12.074;2024-01-30T03:55:00;6.80;;;4.63;;
33858;SDS011;20156;47.486;12.074;2024-01-30T03:57:25;9.07;;;4.83;;
33858;SDS011;20156;47.486;12.074;2024-01-30T03:59:50;6.37;;;5.07;;
33858;SDS011;20156;47.486;12.074;2024-01-30T04:02:16;6.20;;;4.90;;
33858;SDS011;20156;47.486;12.074;2024-01-30T04:04:42;5.97;;;4.70;;
33858;SDS011;20156;47.486;12.074;2024-01-30T04:07:07;8.47;;;5.10;;
33858;SDS011;20156;47.486;12.074;2024-01-30T04:09:33;5.90;;;4.30;;
33858;SDS011;20156;47.486;12.074;2024-01-30T04:11:58;5.23;;;4.27;;
33858;SDS011;20156;47.486;12.074;2024-01-30T04:14:23;6.97;;;4.50;;
33858;SDS011;20156;47.486;12.074;2024-01-30T04:16:49;7.37;;;5.30;;
33858;SDS011;20156;47.486;12.074;2024-01-30T04:19:14;8.83;;;5.17;;
33858;SDS011;20156;47.486;12.074;2024-01-30T04:21:39;8.27;;;4.83;;
33858;SDS011;20156;47.486;12.074;2024-01-30T04:24:05;8.80;;;5.33;;
33858;SDS011;20156;47.486;12.074;2024-01-30T04:26:30;7.80;;;5.33;;
33858;SDS011;20156;47.486;12.074;2024-01-30T04:28:55;8.20;;;5.03;;
33858;SDS011;20156;47.486;12.074;2024-01-30T04:31:20;9.93;;;4.93;;
33858;SDS011;20156;47.486;12.074;2024-01-30T04:33:46;7.30;;;5.33;;
33858;SDS011;20156;47.486;12.074;2024-01-30T04:36:11;7.23;;;4.70;;
33858;SDS011;20156;47.486;12.074;2024-01-30T04:38:37;6.87;;;4.80;;
33858;SDS011;20156;47.486;12.074;2024-01-30T04:41:02;7.03;;;5.60;;
33858;SDS011;20156;47.486;12.074;2024-01-30T04:43:27;6.60;;;4.50;;
33858;SDS011;20156;47.486;12.074;2024-01-30T04:45:53;7.63;;;4.33;;
33858;SDS011;20156;47.486;12.074;2024-01-30T04:48:18;6.37;;;4.80;;
33858;SDS011;20156;47.486;12.074;2024-01-30T04:50:43;6.30;;;5.10;;
33858;SDS011;20156;47.486;12.074;2024-01-30T04:53:08;5.47;;;4.10;;
33858;SDS011;20156;47.486;12.074;2024-01-30T04:55:34;4.60;;;4.00;;
33858;SDS011;20156;47.486;12.074;2024-01-30T04:58:00;6.87;;;5.23;;
33858;SDS011;20156;47.486;12.074;2024-01-30T05:00:26;7.53;;;5.40;;
33858;SDS011;20156;47.486;12.074;2024-01-30T05:02:51;7.33;;;5.37;;
33858;SDS011;20156;47.486;12.074;2024-01-30T05:05:16;5.60;;;4.30;;
33858;SDS011;20156;47.486;12.074;2024-01-30T05:07:44;5.80;;;4.00;;
33858;SDS011;20156;47.486;12.074;2024-01-30T05:10:10;6.97;;;4.93;;
33858;SDS011;20156;47.486;12.074;2024-01-30T05:12:35;6.93;;;5.37;;
33858;SDS011;20156;47.486;12.074;2024-01-30T05:15:00;6.80;;;6.00;;
33858;SDS011;20156;47.486;12.074;2024-01-30T05:17:25;10.67;;;5.90;;
33858;SDS011;20156;47.486;12.074;2024-01-30T05:19:51;8.03;;;6.60;;
33858;SDS011;20156;47.486;12.074;2024-01-30T05:22:16;11.60;;;6.40;;
33858;SDS011;20156;47.486;12.074;2024-01-30T05:24:43;9.87;;;6.73;;
33858;SDS011;20156;47.486;12.074;2024-01-30T05:27:08;7.57;;;6.03;;
33858;SDS011;20156;47.486;12.074;2024-01-30T05:29:34;8.40;;;5.83;;
33858;SDS011;20156;47.486;12.074;2024-01-30T05:31:59;7.97;;;5.43;;
33858;SDS011;20156;47.486;12.074;2024-01-30T05:34:24;8.97;;;5.60;;
33858;SDS011;20156;47.486;12.074;2024-01-30T05:36:49;8.47;;;5.37;;
33858;SDS011;20156;47.486;12.074;2024-01-30T05:39:15;6.87;;;4.90;;
33858;SDS011;20156;47.486;12.074;2024-01-30T05:41:40;7.87;;;6.00;;
33858;SDS011;20156;47.486;12.074;2024-01-30T05:44:06;8.87;;;5.77;;
33858;SDS011;20156;47.486;12.074;2024-01-30T05:46:31;9.23;;;5.70;;
33858;SDS011;20156;47.486;12.074;2024-01-30T05:48:56;8.77;;;5.77;;
33858;SDS011;20156;47.486;12.074;2024-01-30T05:51:21;7.23;;;5.20;;
33858;SDS011;20156;47.486;12.074;2024-01-30T05:53:47;13.80;;;5.70;;
33858;SDS011;20156;47.486;12.074;2024-01-30T05:56:12;6.53;;;5.00;;
33858;SDS011;20156;47.486;12.074;2024-01-30T05:58:37;13.43;;;6.67;;
33858;SDS011;20156;47.486;12.074;2024-01-30T06:01:06;7.03;;;5.67;;
33858;SDS011;20156;47.486;12.074;2024-01-30T06:03:31;7.20;;;5.47;;
33858;SDS011;20156;47.486;12.074;2024-01-30T06:05:58;9.43;;;6.73;;
33858;SDS011;20156;47.486;12.074;2024-01-30T06:08:23;15.10;;;13.20;;
33858;SDS011;20156;47.486;12.074;2024-01-30T06:10:49;16.17;;;13.20;;
33858;SDS011;20156;47.486;12.074;2024-01-30T06:13:14;8.63;;;6.73;;
33858;SDS011;20156;47.486;12.074;2024-01-30T06:15:39;10.90;;;8.13;;
33858;SDS011;20156;47.486;12.074;2024-01-30T06:18:05;11.63;;;8.60;;
33858;SDS011;20156;47.486;12.074;2024-01-30T06:20:30;7.00;;;6.23;;
33858;SDS011;20156;47.486;12.074;2024-01-30T06:22:55;32.60;;;22.87;;
33858;SDS011;20156;47.486;12.074;2024-01-30T06:25:20;16.00;;;11.73;;
33858;SDS011;20156;47.486;12.074;2024-01-30T06:27:46;31.83;;;28.17;;
33858;SDS011;20156;47.486;12.074;2024-01-30T06:30:11;13.40;;;12.00;;
33858;SDS011;20156;47.486;12.074;2024-01-30T06:32:36;22.30;;;18.67;;
33858;SDS011;20156;47.486;12.074;2024-01-30T06:35:02;13.03;;;9.70;;
33858;SDS011;20156;47.486;12.074;2024-01-30T06:37:27;12.73;;;7.87;;
33858;SDS011;20156;47.486;12.074;2024-01-30T06:39:53;11.67;;;7.40;;
33858;SDS011;20156;47.486;12.074;2024-01-30T06:42:18;12.63;;;9.67;;
33858;SDS011;20156;47.486;12.074;2024-01-30T06:44:43;14.90;;;10.27;;
33858;SDS011;20156;47.486;12.074;2024-01-30T06:47:09;13.60;;;11.27;;
33858;SDS011;20156;47.486;12.074;2024-01-30T06:49:34;16.47;;;13.60;;
33858;SDS011;20156;47.486;12.074;2024-01-30T06:52:00;15.67;;;10.87;;
33858;SDS011;20156;47.486;12.074;2024-01-30T06:54:25;13.77;;;10.07;;
33858;SDS011;20156;47.486;12.074;2024-01-30T06:56:50;8.53;;;6.50;;
33858;SDS011;20156;47.486;12.074;2024-01-30T06:59:15;11.20;;;7.83;;
33858;SDS011;20156;47.486;12.074;2024-01-30T07:01:41;12.13;;;7.80;;
33858;SDS011;20156;47.486;12.074;2024-01-30T07:04:06;8.33;;;6.63;;
33858;SDS011;20156;47.486;12.074;2024-01-30T07:06:31;10.83;;;8.27;;
33858;SDS011;20156;47.486;12.074;2024-01-30T07:08:56;14.63;;;7.93;;
33858;SDS011;20156;47.486;12.074;2024-01-30T07:11:21;9.73;;;7.47;;
33858;SDS011;20156;47.486;12.074;2024-01-30T07:13:47;10.33;;;7.17;;
33858;SDS011;20156;47.486;12.074;2024-01-30T07:16:13;9.93;;;7.77;;
33858;SDS011;20156;47.486;12.074;2024-01-30T07:18:39;11.57;;;8.67;;
33858;SDS011;20156;47.486;12.074;2024-01-30T07:21:04;10.40;;;7.67;;
33858;SDS011;20156;47.486;12.074;2024-01-30T07:23:29;12.03;;;8.33;;
33858;SDS011;20156;47.486;12.074;2024-01-30T07:25:55;19.77;;;14.03;;
33858;SDS011;20156;47.486;12.074;2024-01-30T07:28:20;16.93;;;10.37;;
33858;SDS011;20156;47.486;12.074;2024-01-30T07:30:45;14.40;;;9.47;;
33858;SDS011;20156;47.486;12.074;2024-01-30T07:33:11;20.67;;;14.20;;
33858;SDS011;20156;47.486;12.074;2024-01-30T07:35:36;16.73;;;12.13;;
33858;SDS011;20156;47.486;12.074;2024-01-30T07:38:01;15.53;;;11.23;;
33858;SDS011;20156;47.486;12.074;2024-01-30T07:40:27;11.93;;;8.17;;
33858;SDS011;20156;47.486;12.074;2024-01-30T07:42:53;16.97;;;10.80;;
33858;SDS011;20156;47.486;12.074;2024-01-30T07:45:18;16.93;;;10.77;;
33858;SDS011;20156;47.486;12.074;2024-01-30T07:47:47;11.53;;;8.20;;
33858;SDS011;20156;47.486;12.074;2024-01-30T07:50:12;18.60;;;10.30;;
33858;SDS011;20156;47.486;12.074;2024-01-30T07:52:37;13.57;;;9.77;;
33858;SDS011;20156;47.486;12.074;2024-01-30T07:58:07;15.43;;;8.50;;
33858;SDS011;20156;47.486;12.074;2024-01-30T08:00:32;9.23;;;7.60;;
33858;SDS011;20156;47.486;12.074;2024-01-30T08:02:57;9.37;;;7.63;;
33858;SDS011;20156;47.486;12.074;2024-01-30T08:05:23;11.50;;;8.07;;
33858;SDS011;20156;47.486;12.074;2024-01-30T08:07:49;8.93;;;7.50;;
33858;SDS011;20156;47.486;12.074;2024-01-30T08:10:14;13.73;;;7.83;;
33858;SDS011;20156;47.486;12.074;2024-01-30T08:12:40;10.30;;;7.80;;
33858;SDS011;20156;47.486;12.074;2024-01-30T08:15:05;13.97;;;10.13;;
33858;SDS011;20156;47.486;12.074;2024-01-30T08:17:30;14.23;;;8.83;;
33858;SDS011;20156;47.486;12.074;2024-01-30T08:19:56;10.10;;;8.33;;
33858;SDS011;20156;47.486;12.074;2024-01-30T08:22:21;15.40;;;10.37;;
33858;SDS011;20156;47.486;12.074;2024-01-30T08:24:46;12.47;;;9.50;;
33858;SDS011;20156;47.486;12.074;2024-01-30T08:27:11;10.77;;;7.90;;
33858;SDS011;20156;47.486;12.074;2024-01-30T08:29:37;10.87;;;8.00;;
33858;SDS011;20156;47.486;12.074;2024-01-30T08:32:02;12.50;;;7.60;;
33858;SDS011;20156;47.486;12.074;2024-01-30T08:34:28;10.80;;;7.60;;
33858;SDS011;20156;47.486;12.074;2024-01-30T08:36:53;10.30;;;7.70;;
33858;SDS011;20156;47.486;12.074;2024-01-30T08:39:19;8.53;;;6.53;;
33858;SDS011;20156;47.486;12.074;2024-01-30T08:41:44;7.63;;;5.97;;
33858;SDS011;20156;47.486;12.074;2024-01-30T08:44:09;9.77;;;6.77;;
33858;SDS011;20156;47.486;12.074;2024-01-30T08:46:36;7.03;;;5.63;;
33858;SDS011;20156;47.486;12.074;2024-01-30T08:49:01;7.57;;;5.93;;
33858;SDS011;20156;47.486;12.074;2024-01-30T08:51:26;8.43;;;7.00;;
33858;SDS011;20156;47.486;12.074;2024-01-30T08:53:51;8.73;;;7.23;;
33858;SDS011;20156;47.486;12.074;2024-01-30T08:56:18;8.53;;;6.50;;
33858;SDS011;20156;47.486;12.074;2024-01-30T08:58:44;7.90;;;6.17;;
33858;SDS011;20156;47.486;12.074;2024-01-30T09:01:09;11.63;;;7.00;;
33858;SDS011;20156;47.486;12.074;2024-01-30T09:03:34;6.83;;;6.03;;
33858;SDS011;20156;47.486;12.074;2024-01-30T09:05:59;7.43;;;5.87;;
33858;SDS011;20156;47.486;12.074;2024-01-30T09:08:25;8.63;;;6.17;;
33858;SDS011;20156;47.486;12.074;2024-01-30T09:10:50;8.63;;;5.53;;
33858;SDS011;20156;47.486;12.074;2024-01-30T09:13:15;9.03;;;5.90;;
33858;SDS011;20156;47.486;12.074;2024-01-30T09:15:41;10.17;;;5.87;;
33858;SDS011;20156;47.486;12.074;2024-01-30T09:18:06;7.83;;;5.77;;
33858;SDS011;20156;47.486;12.074;2024-01-30T09:20:32;5.40;;;4.90;;
33858;SDS011;20156;47.486;12.074;2024-01-30T09:22:57;8.20;;;5.03;;
33858;SDS011;20156;47.486;12.074;2024-01-30T09:25:22;6.40;;;5.20;;
33858;SDS011;20156;47.486;12.074;2024-01-30T09:27:47;7.87;;;6.20;;
33858;SDS011;20156;47.486;12.074;2024-01-30T09:30:13;8.03;;;6.03;;
33858;SDS011;20156;47.486;12.074;2024-01-30T09:32:39;7.53;;;5.50;;
33858;SDS011;20156;47.486;12.074;2024-01-30T09:35:04;6.60;;;4.97;;
33858;SDS011;20156;47.486;12.074;2024-01-30T09:37:30;6.87;;;4.73;;
33858;SDS011;20156;47.486;12.074;2024-01-30T09:39:55;7.40;;;5.30;;
33858;SDS011;20156;47.486;12.074;2024-01-30T09:42:33;5.73;;;4.40;;
33858;SDS011;20156;47.486;12.074;2024-01-30T09:45:01;4.23;;;3.60;;
33858;SDS011;20156;47.486;12.074;2024-01-30T09:47:31;3.93;;;3.40;;
33858;SDS011;20156;47.486;12.074;2024-01-30T09:49:56;5.17;;;3.40;;
33858;SDS011;20156;47.486;12.074;2024-01-30T09:52:22;3.67;;;3.10;;
33858;SDS011;20156;47.486;12.074;2024-01-30T09:54:47;3.60;;;2.90;;
33858;SDS011;20156;47.486;12.074;2024-01-30T09:57:14;3.37;;;2.90;;
33858;SDS011;20156;47.486;12.074;2024-01-30T09:59:41;4.17;;;3.30;;
33858;SDS011;20156;47.486;12.074;2024-01-30T10:02:06;4.70;;;3.30;;
33858;SDS011;20156;47.486;12.074;2024-01-30T10:04:32;3.93;;;3.53;;
33858;SDS011;20156;47.486;12.074;2024-01-30T10:06:57;4.10;;;3.20;;
33858;SDS011;20156;47.486;12.074;2024-01-30T10:09:25;4.50;;;3.60;;
33858;SDS011;20156;47.486;12.074;2024-01-30T10:11:50;3.67;;;3.30;;
33858;SDS011;20156;47.486;12.074;2024-01-30T10:14:16;6.33;;;3.00;;
33858;SDS011;20156;47.486;12.074;2024-01-30T10:16:41;2.80;;;2.30;;
33858;SDS011;20156;47.486;12.074;2024-01-30T10:19:06;2.40;;;2.17;;
33858;SDS011;20156;47.486;12.074;2024-01-30T10:21:32;2.30;;;2.10;;
33858;SDS011;20156;47.486;12.074;2024-01-30T10:23:57;4.10;;;2.57;;
33858;SDS011;20156;47.486;12.074;2024-01-30T10:26:22;1.73;;;1.60;;
33858;SDS011;20156;47.486;12.074;2024-01-30T10:28:48;3.27;;;1.63;;
33858;SDS011;20156;47.486;12.074;2024-01-30T10:31:17;1.83;;;1.70;;
33858;SDS011;20156;47.486;12.074;2024-01-30T10:33:44;2.43;;;2.23;;
33858;SDS011;20156;47.486;12.074;2024-01-30T10:36:09;2.60;;;2.40;;
33858;SDS011;20156;47.486;12.074;2024-01-30T10:38:35;2.50;;;2.30;;
33858;SDS011;20156;47.486;12.074;2024-01-30T10:41:01;2.37;;;2.17;;
33858;SDS011;20156;47.486;12.074;2024-01-30T10:43:30;2.77;;;1.93;;
33858;SDS011;20156;47.486;12.074;2024-01-30T10:45:56;1.93;;;1.40;;
33858;SDS011;20156;47.486;12.074;2024-01-30T10:48:23;1.20;;;1.10;;
33858;SDS011;20156;47.486;12.074;2024-01-30T10:50:50;1.30;;;1.20;;
33858;SDS011;20156;47.486;12.074;2024-01-30T10:53:15;1.40;;;1.30;;
33858;SDS011;20156;47.486;12.074;2024-01-30T10:55:41;1.13;;;1.10;;
33858;SDS011;20156;47.486;12.074;2024-01-30T10:58:06;2.33;;;1.20;;
33858;SDS011;20156;47.486;12.074;2024-01-30T11:00:32;1.77;;;1.37;;
33858;SDS011;20156;47.486;12.074;2024-01-30T11:02:59;1.40;;;1.20;;
33858;SDS011;20156;47.486;12.074;2024-01-30T11:05:25;1.50;;;1.23;;
33858;SDS011;20156;47.486;12.074;2024-01-30T11:07:53;1.00;;;0.90;;
33858;SDS011;20156;47.486;12.074;2024-01-30T11:10:18;1.37;;;1.03;;
33858;SDS011;20156;47.486;12.074;2024-01-30T11:12:45;1.27;;;1.17;;
33858;SDS011;20156;47.486;12.074;2024-01-30T11:15:17;1.80;;;0.90;;
33858;SDS011;20156;47.486;12.074;2024-01-30T11:20:15;1.10;;;0.90;;
33858;SDS011;20156;47.486;12.074;2024-01-30T11:22:41;2.80;;;2.53;;
33858;SDS011;20156;47.486;12.074;2024-01-30T11:25:10;2.80;;;2.10;;
33858;SDS011;20156;47.486;12.074;2024-01-30T11:27:35;2.07;;;1.00;;
33858;SDS011;20156;47.486;12.074;2024-01-30T11:30:01;0.87;;;0.87;;
33858;SDS011;20156;47.486;12.074;2024-01-30T11:32:27;1.13;;;1.00;;
33858;SDS011;20156;47.486;12.074;2024-01-30T11:34:53;1.13;;;1.03;;
33858;SDS011;20156;47.486;12.074;2024-01-30T11:37:22;2.00;;;1.10;;
33858;SDS011;20156;47.486;12.074;2024-01-30T11:39:50;1.00;;;0.90;;
33858;SDS011;20156;47.486;12.074;2024-01-30T11:42:15;2.03;;;1.80;;
33858;SDS011;20156;47.486;12.074;2024-01-30T11:44:41;2.97;;;2.77;;
33858;SDS011;20156;47.486;12.074;2024-01-30T11:47:11;1.80;;;1.70;;
33858;SDS011;20156;47.486;12.074;2024-01-30T11:49:36;0.73;;;0.73;;
33858;SDS011;20156;47.486;12.074;2024-01-30T11:52:01;1.23;;;1.00;;
33858;SDS011;20156;47.486;12.074;2024-01-30T11:54:27;2.47;;;1.90;;
33858;SDS011;20156;47.486;12.074;2024-01-30T11:56:52;3.30;;;1.80;;
33858;SDS011;20156;47.486;12.074;2024-01-30T11:59:17;1.00;;;1.00;;
33858;SDS011;20156;47.486;12.074;2024-01-30T12:01:42;1.43;;;1.30;;
33858;SDS011;20156;47.486;12.074;2024-01-30T12:04:09;3.67;;;1.00;;
33858;SDS011;20156;47.486;12.074;2024-01-30T12:06:34;1.00;;;1.00;;
33858;SDS011;20156;47.486;12.074;2024-01-30T12:09:00;2.03;;;1.20;;
33858;SDS011;20156;47.486;12.074;2024-01-30T12:11:26;2.43;;;2.00;;
33858;SDS011;20156;47.486;12.074;2024-01-30T12:13:52;5.60;;;2.60;;
33858;SDS011;20156;47.486;12.074;2024-01-30T12:16:18;2.03;;;1.50;;
33858;SDS011;20156;47.486;12.074;2024-01-30T12:18:43;1.80;;;1.50;;
33858;SDS011;20156;47.486;12.074;2024-01-30T12:21:08;1.83;;;1.30;;
33858;SDS011;20156;47.486;12.074;2024-01-30T12:23:34;1.98;;;1.25;;
33858;SDS011;20156;47.486;12.074;2024-01-30T12:26:00;1.23;;;1.13;;
33858;SDS011;20156;47.486;12.074;2024-01-30T12:28:26;1.63;;;1.00;;
33858;SDS011;20156;47.486;12.074;2024-01-30T12:30:55;3.42;;;1.48;;
33858;SDS011;20156;47.486;12.074;2024-01-30T12:33:20;2.70;;;1.60;;
33858;SDS011;20156;47.486;12.074;2024-01-30T12:35:46;0.80;;;0.80;;
33858;SDS011;20156;47.486;12.074;2024-01-30T12:38:13;1.42;;;1.00;;
33858;SDS011;20156;47.486;12.074;2024-01-30T12:40:39;1.23;;;1.05;;
33858;SDS011;20156;47.486;12.074;2024-01-30T12:43:05;1.17;;;0.90;;
33858;SDS011;20156;47.486;12.074;2024-01-30T12:45:31;1.07;;;0.97;;
33858;SDS011;20156;47.486;12.074;2024-01-30T12:47:56;0.80;;;0.80;;
33858;SDS011;20156;47.486;12.074;2024-01-30T12:50:23;0.93;;;0.82;;
33858;SDS011;20156;47.486;12.074;2024-01-30T12:52:48;0.98;;;0.82;;
33858;SDS011;20156;47.486;12.074;2024-01-30T12:55:14;0.85;;;0.85;;
33858;SDS011;20156;47.486;12.074;2024-01-30T12:57:40;1.20;;;0.88;;
33858;SDS011;20156;47.486;12.074;2024-01-30T13:00:05;1.17;;;0.95;;
33858;SDS011;20156;47.486;12.074;2024-01-30T13:02:33;1.00;;;0.90;;
33858;SDS011;20156;47.486;12.074;2024-01-30T13:05:02;1.92;;;0.85;;
33858;SDS011;20156;47.486;12.074;2024-01-30T13:07:27;0.75;;;0.75;;
33858;SDS011;20156;47.486;12.074;2024-01-30T13:09:53;0.80;;;0.80;;
33858;SDS011;20156;47.486;12.074;2024-01-30T13:12:19;0.90;;;0.90;;
33858;SDS011;20156;47.486;12.074;2024-01-30T13:14:45;0.55;;;0.55;;
33858;SDS011;20156;47.486;12.074;2024-01-30T13:17:11;0.85;;;0.70;;
33858;SDS011;20156;47.486;12.074;2024-01-30T13:19:36;0.93;;;0.63;;
33858;SDS011;20156;47.486;12.074;2024-01-30T13:22:01;0.90;;;0.90;;
33858;SDS011;20156;47.486;12.074;2024-01-30T13:24:27;0.88;;;0.70;;
33858;SDS011;20156;47.486;12.074;2024-01-30T13:26:52;1.55;;;0.80;;
33858;SDS011;20156;47.486;12.074;2024-01-30T13:29:18;0.75;;;0.75;;
33858;SDS011;20156;47.486;12.074;2024-01-30T13:31:43;0.90;;;0.80;;
33858;SDS011;20156;47.486;12.074;2024-01-30T13:34:11;0.88;;;0.65;;
33858;SDS011;20156;47.486;12.074;2024-01-30T13:36:36;1.27;;;0.95;;
33858;SDS011;20156;47.486;12.074;2024-01-30T13:39:01;0.77;;;0.70;;
33858;SDS011;20156;47.486;12.074;2024-01-30T13:41:27;0.73;;;0.73;;
33858;SDS011;20156;47.486;12.074;2024-01-30T13:43:55;0.80;;;0.80;;
33858;SDS011;20156;47.486;12.074;2024-01-30T13:46:20;0.60;;;0.60;;
33858;SDS011;20156;47.486;12.074;2024-01-30T13:48:45;1.55;;;0.77;;
33858;SDS011;20156;47.486;12.074;2024-01-30T13:51:11;1.58;;;0.63;;
33858;SDS011;20156;47.486;12.074;2024-01-30T13:53:38;1.00;;;0.80;;
33858;SDS011;20156;47.486;12.074;2024-01-30T13:56:03;0.68;;;0.68;;
33858;SDS011;20156;47.486;12.074;2024-01-30T13:58:28;0.55;;;0.45;;
33858;SDS011;20156;47.486;12.074;2024-01-30T14:00:54;0.70;;;0.70;;
33858;SDS011;20156;47.486;12.074;2024-01-30T14:03:19;0.88;;;0.68;;
33858;SDS011;20156;47.486;12.074;2024-01-30T14:05:45;0.75;;;0.75;;
33858;SDS011;20156;47.486;12.074;2024-01-30T14:08:11;1.48;;;0.90;;
33858;SDS011;20156;47.486;12.074;2024-01-30T14:10:37;0.82;;;0.82;;
33858;SDS011;20156;47.486;12.074;2024-01-30T14:13:02;0.95;;;0.77;;
33858;SDS011;20156;47.486;12.074;2024-01-30T14:15:28;1.23;;;0.68;;
33858;SDS011;20156;47.486;12.074;2024-01-30T14:17:53;0.63;;;0.60;;
33858;SDS011;20156;47.486;12.074;2024-01-30T14:20:18;1.15;;;0.90;;
33858;SDS011;20156;47.486;12.074;2024-01-30T14:22:44;0.73;;;0.73;;
33858;SDS011;20156;47.486;12.074;2024-01-30T14:25:09;0.90;;;0.90;;
33858;SDS011;20156;47.486;12.074;2024-01-30T14:27:35;0.70;;;0.70;;